aviador You're here:

KAAF Decoded Metar

APALACHICOLA in FL, USA
Report Time2017-04-27 23:53:00
UTC Time2017-04-28 00:23:56
Flight Rules ifr IFR
Wind170° at 08 kt
W.Decomp.*RWY 18: 7.9 kt HW 1 kt LCW
RWY 14: 6.7 kt HW 4.4 kt RCW
RWY 24: 3.1 kt HW 7.4 kt LCW
W.Rank170° ranks 11
Current wind is above 170° avg. (7.9)
Visibility9999 m
Phenomena:N/A
Clouds:Overcast 006 Hf
Expected CloudBase > 400 ft AGL from Temp-Dew spread
Ceiling600 ft
Temp25°C (ISA +10)
Dew Point24°C (94% RH)
QNH1012 hPa
Density Alt1,601 ft
Elevation16 ft
Report Wrong Elevation
Raw Report
KAAF 272353Z AUTO 17008KT 9SM OVC006 25/24 A2988=

Extra information for KAAF:More info

Metar Taf Metar & Taf Last 4 Metars F.Rules Stats Wind Profile Meteogram Temp Stats Airport Information Weather charts Add Link Nearby VenuesMetar ALERT Operation Metar Decoded Social comments

AIRNAV info for KAAF